sensor_id;sensor_type;location;lat;lon;timestamp;P1;durP1;ratioP1;P2;durP2;ratioP2
13331;SDS011;6735;51.456;12.626;2022-11-20T00:02:10;28.60;;;20.33;;
13331;SDS011;6735;51.456;12.626;2022-11-20T00:04:35;26.07;;;20.00;;
13331;SDS011;6735;51.456;12.626;2022-11-20T00:07:00;27.80;;;20.77;;
13331;SDS011;6735;51.456;12.626;2022-11-20T00:09:26;29.90;;;20.93;;
13331;SDS011;6735;51.456;12.626;2022-11-20T00:11:51;30.73;;;21.00;;
13331;SDS011;6735;51.456;12.626;2022-11-20T00:14:17;29.57;;;21.23;;
13331;SDS011;6735;51.456;12.626;2022-11-20T00:16:42;31.07;;;21.07;;
13331;SDS011;6735;51.456;12.626;2022-11-20T00:19:08;28.43;;;20.37;;
13331;SDS011;6735;51.456;12.626;2022-11-20T00:21:34;31.33;;;21.23;;
13331;SDS011;6735;51.456;12.626;2022-11-20T00:23:59;29.13;;;20.80;;
13331;SDS011;6735;51.456;12.626;2022-11-20T00:26:25;27.60;;;19.80;;
13331;SDS011;6735;51.456;12.626;2022-11-20T00:28:55;29.70;;;20.70;;
13331;SDS011;6735;51.456;12.626;2022-11-20T00:31:25;29.50;;;21.27;;
13331;SDS011;6735;51.456;12.626;2022-11-20T00:33:51;32.87;;;21.90;;
13331;SDS011;6735;51.456;12.626;2022-11-20T00:36:18;26.80;;;19.73;;
13331;SDS011;6735;51.456;12.626;2022-11-20T00:38:51;28.87;;;20.77;;
13331;SDS011;6735;51.456;12.626;2022-11-20T00:41:21;28.13;;;20.27;;
13331;SDS011;6735;51.456;12.626;2022-11-20T00:43:47;28.13;;;20.00;;
13331;SDS011;6735;51.456;12.626;2022-11-20T00:46:13;29.50;;;21.33;;
13331;SDS011;6735;51.456;12.626;2022-11-20T00:48:40;29.60;;;21.13;;
13331;SDS011;6735;51.456;12.626;2022-11-20T00:51:06;29.70;;;19.90;;
13331;SDS011;6735;51.456;12.626;2022-11-20T00:53:32;28.67;;;20.20;;
13331;SDS011;6735;51.456;12.626;2022-11-20T00:55:59;29.97;;;20.07;;
13331;SDS011;6735;51.456;12.626;2022-11-20T00:58:28;27.87;;;20.63;;
13331;SDS011;6735;51.456;12.626;2022-11-20T01:03:32;28.90;;;19.77;;
13331;SDS011;6735;51.456;12.626;2022-11-20T01:06:03;31.90;;;20.57;;
13331;SDS011;6735;51.456;12.626;2022-11-20T01:08:31;30.13;;;19.47;;
13331;SDS011;6735;51.456;12.626;2022-11-20T01:11:01;29.00;;;19.57;;
13331;SDS011;6735;51.456;12.626;2022-11-20T01:13:29;27.80;;;19.13;;
13331;SDS011;6735;51.456;12.626;2022-11-20T01:16:09;27.30;;;19.17;;
13331;SDS011;6735;51.456;12.626;2022-11-20T01:18:42;27.80;;;20.03;;
13331;SDS011;6735;51.456;12.626;2022-11-20T01:21:11;31.90;;;20.87;;
13331;SDS011;6735;51.456;12.626;2022-11-20T01:23:40;31.10;;;19.63;;
13331;SDS011;6735;51.456;12.626;2022-11-20T01:26:08;32.83;;;21.33;;
13331;SDS011;6735;51.456;12.626;2022-11-20T01:28:35;32.60;;;21.23;;
13331;SDS011;6735;51.456;12.626;2022-11-20T01:31:01;29.63;;;20.43;;
13331;SDS011;6735;51.456;12.626;2022-11-20T01:33:34;30.20;;;20.77;;
13331;SDS011;6735;51.456;12.626;2022-11-20T01:36:04;27.50;;;19.97;;
13331;SDS011;6735;51.456;12.626;2022-11-20T01:38:30;29.67;;;20.40;;
13331;SDS011;6735;51.456;12.626;2022-11-20T01:40:56;27.93;;;19.50;;
13331;SDS011;6735;51.456;12.626;2022-11-20T01:43:22;27.17;;;19.90;;
13331;SDS011;6735;51.456;12.626;2022-11-20T01:46:05;28.60;;;20.27;;
13331;SDS011;6735;51.456;12.626;2022-11-20T01:48:36;28.67;;;19.97;;
13331;SDS011;6735;51.456;12.626;2022-11-20T01:51:49;27.47;;;19.80;;
13331;SDS011;6735;51.456;12.626;2022-11-20T01:54:23;30.17;;;19.47;;
13331;SDS011;6735;51.456;12.626;2022-11-20T01:56:54;27.97;;;19.57;;
13331;SDS011;6735;51.456;12.626;2022-11-20T01:59:22;27.50;;;18.90;;
13331;SDS011;6735;51.456;12.626;2022-11-20T02:01:50;27.53;;;19.10;;
13331;SDS011;6735;51.456;12.626;2022-11-20T02:04:15;27.10;;;19.70;;
13331;SDS011;6735;51.456;12.626;2022-11-20T02:09:40;30.97;;;20.20;;
13331;SDS011;6735;51.456;12.626;2022-11-20T02:12:05;26.70;;;19.40;;
13331;SDS011;6735;51.456;12.626;2022-11-20T02:14:51;26.27;;;18.23;;
13331;SDS011;6735;51.456;12.626;2022-11-20T02:17:16;28.30;;;19.43;;
13331;SDS011;6735;51.456;12.626;2022-11-20T02:19:42;28.13;;;20.13;;
13331;SDS011;6735;51.456;12.626;2022-11-20T02:22:12;31.80;;;20.10;;
13331;SDS011;6735;51.456;12.626;2022-11-20T02:24:44;27.07;;;19.40;;
13331;SDS011;6735;51.456;12.626;2022-11-20T02:27:12;28.40;;;19.80;;
13331;SDS011;6735;51.456;12.626;2022-11-20T02:29:41;27.10;;;19.40;;
13331;SDS011;6735;51.456;12.626;2022-11-20T02:32:20;27.57;;;19.10;;
13331;SDS011;6735;51.456;12.626;2022-11-20T02:34:46;27.50;;;19.77;;
13331;SDS011;6735;51.456;12.626;2022-11-20T02:37:12;29.33;;;20.57;;
13331;SDS011;6735;51.456;12.626;2022-11-20T02:39:38;27.70;;;19.43;;
13331;SDS011;6735;51.456;12.626;2022-11-20T02:42:05;26.13;;;18.93;;
13331;SDS011;6735;51.456;12.626;2022-11-20T02:44:30;28.27;;;19.77;;
13331;SDS011;6735;51.456;12.626;2022-11-20T02:46:59;25.60;;;18.70;;
13331;SDS011;6735;51.456;12.626;2022-11-20T02:49:25;26.03;;;19.43;;
13331;SDS011;6735;51.456;12.626;2022-11-20T02:51:50;29.30;;;20.00;;
13331;SDS011;6735;51.456;12.626;2022-11-20T02:54:16;28.97;;;19.53;;
13331;SDS011;6735;51.456;12.626;2022-11-20T02:56:41;29.17;;;19.97;;
13331;SDS011;6735;51.456;12.626;2022-11-20T02:59:07;28.20;;;18.90;;
13331;SDS011;6735;51.456;12.626;2022-11-20T03:01:33;28.17;;;19.47;;
13331;SDS011;6735;51.456;12.626;2022-11-20T03:03:58;28.87;;;19.53;;
13331;SDS011;6735;51.456;12.626;2022-11-20T03:06:24;26.40;;;19.13;;
13331;SDS011;6735;51.456;12.626;2022-11-20T03:08:49;27.43;;;19.80;;
13331;SDS011;6735;51.456;12.626;2022-11-20T03:11:15;26.10;;;19.03;;
13331;SDS011;6735;51.456;12.626;2022-11-20T03:13:41;27.60;;;19.20;;
13331;SDS011;6735;51.456;12.626;2022-11-20T03:16:11;30.43;;;19.33;;
13331;SDS011;6735;51.456;12.626;2022-11-20T03:18:38;27.50;;;19.77;;
13331;SDS011;6735;51.456;12.626;2022-11-20T03:21:05;29.57;;;20.23;;
13331;SDS011;6735;51.456;12.626;2022-11-20T03:23:31;30.03;;;19.63;;
13331;SDS011;6735;51.456;12.626;2022-11-20T03:26:13;29.23;;;21.10;;
13331;SDS011;6735;51.456;12.626;2022-11-20T03:28:48;30.00;;;19.13;;
13331;SDS011;6735;51.456;12.626;2022-11-20T03:31:16;28.27;;;19.67;;
13331;SDS011;6735;51.456;12.626;2022-11-20T03:33:42;27.17;;;19.67;;
13331;SDS011;6735;51.456;12.626;2022-11-20T03:36:09;29.47;;;20.27;;
13331;SDS011;6735;51.456;12.626;2022-11-20T03:38:37;26.67;;;18.80;;
13331;SDS011;6735;51.456;12.626;2022-11-20T03:41:04;28.90;;;20.00;;
13331;SDS011;6735;51.456;12.626;2022-11-20T03:43:32;31.07;;;20.30;;
13331;SDS011;6735;51.456;12.626;2022-11-20T03:45:58;28.87;;;19.97;;
13331;SDS011;6735;51.456;12.626;2022-11-20T03:48:23;32.13;;;20.37;;
13331;SDS011;6735;51.456;12.626;2022-11-20T03:50:49;30.50;;;20.03;;
13331;SDS011;6735;51.456;12.626;2022-11-20T03:53:16;30.27;;;20.60;;
13331;SDS011;6735;51.456;12.626;2022-11-20T03:55:41;31.33;;;20.07;;
13331;SDS011;6735;51.456;12.626;2022-11-20T03:58:07;29.00;;;19.93;;
13331;SDS011;6735;51.456;12.626;2022-11-20T04:00:33;30.77;;;21.17;;
13331;SDS011;6735;51.456;12.626;2022-11-20T04:02:59;31.90;;;20.90;;
13331;SDS011;6735;51.456;12.626;2022-11-20T04:05:25;28.00;;;20.17;;
13331;SDS011;6735;51.456;12.626;2022-11-20T04:07:51;32.87;;;21.23;;
13331;SDS011;6735;51.456;12.626;2022-11-20T04:10:17;32.87;;;21.97;;
13331;SDS011;6735;51.456;12.626;2022-11-20T04:12:42;30.23;;;21.37;;
13331;SDS011;6735;51.456;12.626;2022-11-20T04:15:08;32.70;;;21.97;;
13331;SDS011;6735;51.456;12.626;2022-11-20T04:17:34;33.53;;;21.03;;
13331;SDS011;6735;51.456;12.626;2022-11-20T04:20:00;33.63;;;22.00;;
13331;SDS011;6735;51.456;12.626;2022-11-20T04:22:25;32.37;;;21.67;;
13331;SDS011;6735;51.456;12.626;2022-11-20T04:24:51;36.13;;;22.97;;
13331;SDS011;6735;51.456;12.626;2022-11-20T04:27:17;35.43;;;22.87;;
13331;SDS011;6735;51.456;12.626;2022-11-20T04:29:43;35.83;;;22.70;;
13331;SDS011;6735;51.456;12.626;2022-11-20T04:32:08;30.77;;;21.33;;
13331;SDS011;6735;51.456;12.626;2022-11-20T04:34:34;34.33;;;22.70;;
13331;SDS011;6735;51.456;12.626;2022-11-20T04:36:59;36.77;;;23.53;;
13331;SDS011;6735;51.456;12.626;2022-11-20T04:39:25;33.47;;;23.37;;
13331;SDS011;6735;51.456;12.626;2022-11-20T04:41:51;35.60;;;23.37;;
13331;SDS011;6735;51.456;12.626;2022-11-20T04:44:36;36.20;;;22.77;;
13331;SDS011;6735;51.456;12.626;2022-11-20T04:47:02;36.27;;;24.07;;
13331;SDS011;6735;51.456;12.626;2022-11-20T04:49:27;35.70;;;22.77;;
13331;SDS011;6735;51.456;12.626;2022-11-20T04:51:53;33.93;;;23.57;;
13331;SDS011;6735;51.456;12.626;2022-11-20T04:54:18;35.20;;;23.37;;
13331;SDS011;6735;51.456;12.626;2022-11-20T04:56:47;33.43;;;22.10;;
13331;SDS011;6735;51.456;12.626;2022-11-20T04:59:12;34.47;;;22.70;;
13331;SDS011;6735;51.456;12.626;2022-11-20T05:01:38;34.17;;;22.97;;
13331;SDS011;6735;51.456;12.626;2022-11-20T05:04:04;34.10;;;22.77;;
13331;SDS011;6735;51.456;12.626;2022-11-20T05:06:30;37.73;;;23.03;;
13331;SDS011;6735;51.456;12.626;2022-11-20T05:08:56;36.97;;;24.27;;
13331;SDS011;6735;51.456;12.626;2022-11-20T05:11:21;33.50;;;22.83;;
13331;SDS011;6735;51.456;12.626;2022-11-20T05:13:47;37.37;;;24.23;;
13331;SDS011;6735;51.456;12.626;2022-11-20T05:16:14;34.77;;;23.13;;
13331;SDS011;6735;51.456;12.626;2022-11-20T05:18:41;34.83;;;23.57;;
13331;SDS011;6735;51.456;12.626;2022-11-20T05:21:08;36.47;;;23.17;;
13331;SDS011;6735;51.456;12.626;2022-11-20T05:23:35;38.23;;;24.87;;
13331;SDS011;6735;51.456;12.626;2022-11-20T05:26:01;37.20;;;23.33;;
13331;SDS011;6735;51.456;12.626;2022-11-20T05:28:27;36.63;;;24.10;;
13331;SDS011;6735;51.456;12.626;2022-11-20T05:30:54;37.23;;;24.10;;
13331;SDS011;6735;51.456;12.626;2022-11-20T05:33:20;37.80;;;25.13;;
13331;SDS011;6735;51.456;12.626;2022-11-20T05:35:46;36.83;;;24.03;;
13331;SDS011;6735;51.456;12.626;2022-11-20T05:38:12;39.73;;;25.10;;
13331;SDS011;6735;51.456;12.626;2022-11-20T05:40:38;38.43;;;24.60;;
13331;SDS011;6735;51.456;12.626;2022-11-20T05:43:04;38.90;;;24.83;;
13331;SDS011;6735;51.456;12.626;2022-11-20T05:45:29;36.53;;;24.00;;
13331;SDS011;6735;51.456;12.626;2022-11-20T05:47:58;39.03;;;25.27;;
13331;SDS011;6735;51.456;12.626;2022-11-20T05:50:25;41.10;;;25.63;;
13331;SDS011;6735;51.456;12.626;2022-11-20T05:52:51;37.07;;;25.13;;
13331;SDS011;6735;51.456;12.626;2022-11-20T05:55:16;37.23;;;24.67;;
13331;SDS011;6735;51.456;12.626;2022-11-20T05:57:42;37.63;;;23.87;;
13331;SDS011;6735;51.456;12.626;2022-11-20T06:00:07;39.53;;;24.80;;
13331;SDS011;6735;51.456;12.626;2022-11-20T06:02:34;35.17;;;23.83;;
13331;SDS011;6735;51.456;12.626;2022-11-20T06:05:00;36.90;;;23.47;;
13331;SDS011;6735;51.456;12.626;2022-11-20T06:07:26;33.87;;;22.40;;
13331;SDS011;6735;51.456;12.626;2022-11-20T06:09:51;34.17;;;22.30;;
13331;SDS011;6735;51.456;12.626;2022-11-20T06:12:17;33.37;;;22.70;;
13331;SDS011;6735;51.456;12.626;2022-11-20T06:14:42;34.00;;;22.57;;
13331;SDS011;6735;51.456;12.626;2022-11-20T06:17:08;33.97;;;21.90;;
13331;SDS011;6735;51.456;12.626;2022-11-20T06:19:33;35.27;;;22.93;;
13331;SDS011;6735;51.456;12.626;2022-11-20T06:21:59;31.40;;;21.77;;
13331;SDS011;6735;51.456;12.626;2022-11-20T06:24:24;35.43;;;21.50;;
13331;SDS011;6735;51.456;12.626;2022-11-20T06:26:50;33.00;;;22.13;;
13331;SDS011;6735;51.456;12.626;2022-11-20T06:29:16;31.63;;;21.30;;
13331;SDS011;6735;51.456;12.626;2022-11-20T06:31:41;34.10;;;22.23;;
13331;SDS011;6735;51.456;12.626;2022-11-20T06:34:07;34.73;;;22.40;;
13331;SDS011;6735;51.456;12.626;2022-11-20T06:36:33;33.03;;;21.70;;
13331;SDS011;6735;51.456;12.626;2022-11-20T06:38:59;33.43;;;21.23;;
13331;SDS011;6735;51.456;12.626;2022-11-20T06:41:25;33.47;;;22.13;;
13331;SDS011;6735;51.456;12.626;2022-11-20T06:43:51;32.17;;;21.77;;
13331;SDS011;6735;51.456;12.626;2022-11-20T06:46:17;37.07;;;23.00;;
13331;SDS011;6735;51.456;12.626;2022-11-20T06:48:44;37.20;;;22.93;;
13331;SDS011;6735;51.456;12.626;2022-11-20T06:51:10;36.47;;;23.30;;
13331;SDS011;6735;51.456;12.626;2022-11-20T06:53:37;37.87;;;23.30;;
13331;SDS011;6735;51.456;12.626;2022-11-20T06:56:03;33.20;;;22.13;;
13331;SDS011;6735;51.456;12.626;2022-11-20T06:58:31;35.13;;;22.57;;
13331;SDS011;6735;51.456;12.626;2022-11-20T07:01:08;33.93;;;22.33;;
13331;SDS011;6735;51.456;12.626;2022-11-20T07:03:35;37.27;;;23.10;;
13331;SDS011;6735;51.456;12.626;2022-11-20T07:06:01;37.87;;;24.03;;
13331;SDS011;6735;51.456;12.626;2022-11-20T07:08:28;35.17;;;22.40;;
13331;SDS011;6735;51.456;12.626;2022-11-20T07:10:56;39.60;;;23.73;;
13331;SDS011;6735;51.456;12.626;2022-11-20T07:13:23;33.53;;;23.57;;
13331;SDS011;6735;51.456;12.626;2022-11-20T07:15:49;39.73;;;23.37;;
13331;SDS011;6735;51.456;12.626;2022-11-20T07:18:14;41.83;;;25.40;;
13331;SDS011;6735;51.456;12.626;2022-11-20T07:20:40;41.57;;;25.77;;
13331;SDS011;6735;51.456;12.626;2022-11-20T07:23:05;41.60;;;24.90;;
13331;SDS011;6735;51.456;12.626;2022-11-20T07:25:31;41.47;;;25.97;;
13331;SDS011;6735;51.456;12.626;2022-11-20T07:27:57;39.60;;;25.80;;
13331;SDS011;6735;51.456;12.626;2022-11-20T07:30:23;39.03;;;24.40;;
13331;SDS011;6735;51.456;12.626;2022-11-20T07:32:52;36.63;;;24.23;;
13331;SDS011;6735;51.456;12.626;2022-11-20T07:35:19;35.27;;;23.67;;
13331;SDS011;6735;51.456;12.626;2022-11-20T07:37:45;34.57;;;23.53;;
13331;SDS011;6735;51.456;12.626;2022-11-20T07:40:11;36.70;;;23.73;;
13331;SDS011;6735;51.456;12.626;2022-11-20T07:42:37;36.80;;;23.00;;
13331;SDS011;6735;51.456;12.626;2022-11-20T07:45:03;35.43;;;24.13;;
13331;SDS011;6735;51.456;12.626;2022-11-20T07:47:29;38.43;;;23.90;;
13331;SDS011;6735;51.456;12.626;2022-11-20T07:50:00;36.37;;;23.80;;
13331;SDS011;6735;51.456;12.626;2022-11-20T07:52:25;35.77;;;23.70;;
13331;SDS011;6735;51.456;12.626;2022-11-20T07:54:51;36.20;;;23.60;;
13331;SDS011;6735;51.456;12.626;2022-11-20T07:57:16;37.00;;;23.57;;
13331;SDS011;6735;51.456;12.626;2022-11-20T07:59:42;35.77;;;22.60;;
13331;SDS011;6735;51.456;12.626;2022-11-20T08:02:09;34.73;;;23.00;;
13331;SDS011;6735;51.456;12.626;2022-11-20T08:04:35;35.63;;;23.20;;
13331;SDS011;6735;51.456;12.626;2022-11-20T08:07:01;33.70;;;23.57;;
13331;SDS011;6735;51.456;12.626;2022-11-20T08:09:26;36.20;;;23.40;;
13331;SDS011;6735;51.456;12.626;2022-11-20T08:11:51;36.17;;;22.87;;
13331;SDS011;6735;51.456;12.626;2022-11-20T08:14:36;34.50;;;22.30;;
13331;SDS011;6735;51.456;12.626;2022-11-20T08:17:01;33.33;;;22.97;;
13331;SDS011;6735;51.456;12.626;2022-11-20T08:19:27;34.93;;;23.23;;
13331;SDS011;6735;51.456;12.626;2022-11-20T08:21:53;36.63;;;23.13;;
13331;SDS011;6735;51.456;12.626;2022-11-20T08:24:19;33.57;;;23.77;;
13331;SDS011;6735;51.456;12.626;2022-11-20T08:26:45;35.10;;;22.67;;
13331;SDS011;6735;51.456;12.626;2022-11-20T08:29:10;34.80;;;23.43;;
13331;SDS011;6735;51.456;12.626;2022-11-20T08:31:36;35.07;;;23.83;;
13331;SDS011;6735;51.456;12.626;2022-11-20T08:34:01;37.43;;;24.10;;
13331;SDS011;6735;51.456;12.626;2022-11-20T08:36:27;35.63;;;24.50;;
13331;SDS011;6735;51.456;12.626;2022-11-20T08:38:53;40.57;;;25.83;;
13331;SDS011;6735;51.456;12.626;2022-11-20T08:41:20;38.23;;;23.77;;
13331;SDS011;6735;51.456;12.626;2022-11-20T08:43:49;36.77;;;24.20;;
13331;SDS011;6735;51.456;12.626;2022-11-20T08:46:15;40.27;;;26.13;;
13331;SDS011;6735;51.456;12.626;2022-11-20T08:48:41;37.97;;;25.73;;
13331;SDS011;6735;51.456;12.626;2022-11-20T08:51:09;37.10;;;25.27;;
13331;SDS011;6735;51.456;12.626;2022-11-20T08:53:35;39.43;;;26.47;;
13331;SDS011;6735;51.456;12.626;2022-11-20T08:56:01;38.97;;;25.63;;
13331;SDS011;6735;51.456;12.626;2022-11-20T08:58:26;35.60;;;25.27;;
13331;SDS011;6735;51.456;12.626;2022-11-20T09:00:52;41.70;;;27.13;;
13331;SDS011;6735;51.456;12.626;2022-11-20T09:03:18;38.97;;;26.17;;
13331;SDS011;6735;51.456;12.626;2022-11-20T09:05:43;38.77;;;24.67;;
13331;SDS011;6735;51.456;12.626;2022-11-20T09:08:09;39.07;;;26.53;;
13331;SDS011;6735;51.456;12.626;2022-11-20T09:10:34;38.93;;;25.97;;
13331;SDS011;6735;51.456;12.626;2022-11-20T09:13:01;41.43;;;25.63;;
13331;SDS011;6735;51.456;12.626;2022-11-20T09:15:27;39.07;;;26.10;;
13331;SDS011;6735;51.456;12.626;2022-11-20T09:17:53;40.20;;;27.10;;
13331;SDS011;6735;51.456;12.626;2022-11-20T09:20:20;40.60;;;26.93;;
13331;SDS011;6735;51.456;12.626;2022-11-20T09:22:45;41.10;;;26.93;;
13331;SDS011;6735;51.456;12.626;2022-11-20T09:25:11;37.53;;;26.50;;
13331;SDS011;6735;51.456;12.626;2022-11-20T09:27:37;41.13;;;27.77;;
13331;SDS011;6735;51.456;12.626;2022-11-20T09:30:02;43.90;;;28.73;;
13331;SDS011;6735;51.456;12.626;2022-11-20T09:32:29;44.50;;;29.03;;
13331;SDS011;6735;51.456;12.626;2022-11-20T09:34:54;40.07;;;28.17;;
13331;SDS011;6735;51.456;12.626;2022-11-20T09:37:20;39.30;;;27.97;;
13331;SDS011;6735;51.456;12.626;2022-11-20T09:39:46;43.80;;;28.07;;
13331;SDS011;6735;51.456;12.626;2022-11-20T09:48:05;36.33;;;25.77;;
13331;SDS011;6735;51.456;12.626;2022-11-20T09:55:53;38.17;;;25.10;;
13331;SDS011;6735;51.456;12.626;2022-11-20T10:01:11;33.53;;;23.60;;
13331;SDS011;6735;51.456;12.626;2022-11-20T10:06:32;33.40;;;22.77;;
13331;SDS011;6735;51.456;12.626;2022-11-20T10:17:22;32.00;;;23.23;;
13331;SDS011;6735;51.456;12.626;2022-11-20T10:20:35;31.63;;;22.80;;
13331;SDS011;6735;51.456;12.626;2022-11-20T10:28:58;33.47;;;23.43;;
13331;SDS011;6735;51.456;12.626;2022-11-20T10:31:41;32.03;;;22.13;;
13331;SDS011;6735;51.456;12.626;2022-11-20T10:36:56;29.27;;;21.87;;
13331;SDS011;6735;51.456;12.626;2022-11-20T10:42:11;31.60;;;22.37;;
13331;SDS011;6735;51.456;12.626;2022-11-20T10:44:42;30.80;;;22.57;;
13331;SDS011;6735;51.456;12.626;2022-11-20T10:47:30;33.33;;;23.17;;
13331;SDS011;6735;51.456;12.626;2022-11-20T10:49:56;30.63;;;22.70;;
13331;SDS011;6735;51.456;12.626;2022-11-20T10:58:38;28.73;;;20.93;;
13331;SDS011;6735;51.456;12.626;2022-11-20T11:01:16;27.27;;;19.10;;
13331;SDS011;6735;51.456;12.626;2022-11-20T11:03:41;32.93;;;20.90;;
13331;SDS011;6735;51.456;12.626;2022-11-20T11:06:11;28.30;;;20.50;;
13331;SDS011;6735;51.456;12.626;2022-11-20T11:08:44;28.37;;;19.70;;
13331;SDS011;6735;51.456;12.626;2022-11-20T11:14:03;25.63;;;19.17;;
13331;SDS011;6735;51.456;12.626;2022-11-20T11:16:32;29.27;;;20.33;;
13331;SDS011;6735;51.456;12.626;2022-11-20T11:19:13;27.93;;;19.47;;
13331;SDS011;6735;51.456;12.626;2022-11-20T11:21:45;28.53;;;21.20;;
13331;SDS011;6735;51.456;12.626;2022-11-20T11:24:28;27.40;;;19.27;;
13331;SDS011;6735;51.456;12.626;2022-11-20T11:26:58;27.83;;;20.47;;
13331;SDS011;6735;51.456;12.626;2022-11-20T11:29:31;26.23;;;18.83;;
13331;SDS011;6735;51.456;12.626;2022-11-20T11:32:04;27.87;;;19.33;;
13331;SDS011;6735;51.456;12.626;2022-11-20T11:34:31;26.87;;;19.27;;
13331;SDS011;6735;51.456;12.626;2022-11-20T11:36:57;27.83;;;19.50;;
13331;SDS011;6735;51.456;12.626;2022-11-20T11:39:24;25.37;;;18.87;;
13331;SDS011;6735;51.456;12.626;2022-11-20T11:41:51;25.20;;;17.60;;
13331;SDS011;6735;51.456;12.626;2022-11-20T11:47:11;26.20;;;18.70;;
13331;SDS011;6735;51.456;12.626;2022-11-20T11:49:47;25.53;;;17.80;;
13331;SDS011;6735;51.456;12.626;2022-11-20T11:52:14;27.13;;;19.20;;
13331;SDS011;6735;51.456;12.626;2022-11-20T11:54:51;27.63;;;19.60;;
13331;SDS011;6735;51.456;12.626;2022-11-20T12:02:29;28.67;;;20.83;;
13331;SDS011;6735;51.456;12.626;2022-11-20T12:05:21;29.90;;;20.70;;
13331;SDS011;6735;51.456;12.626;2022-11-20T12:11:06;31.27;;;22.53;;
13331;SDS011;6735;51.456;12.626;2022-11-20T12:14:03;30.97;;;21.23;;
13331;SDS011;6735;51.456;12.626;2022-11-20T12:16:44;24.67;;;19.27;;
13331;SDS011;6735;51.456;12.626;2022-11-20T12:19:11;25.27;;;18.70;;
13331;SDS011;6735;51.456;12.626;2022-11-20T12:24:10;27.60;;;20.63;;
13331;SDS011;6735;51.456;12.626;2022-11-20T12:27:05;23.13;;;17.50;;
13331;SDS011;6735;51.456;12.626;2022-11-20T12:30:01;23.43;;;17.53;;
13331;SDS011;6735;51.456;12.626;2022-11-20T12:43:23;20.40;;;15.97;;
13331;SDS011;6735;51.456;12.626;2022-11-20T12:48:51;21.20;;;15.77;;
13331;SDS011;6735;51.456;12.626;2022-11-20T12:56:37;20.30;;;15.10;;
13331;SDS011;6735;51.456;12.626;2022-11-20T13:02:23;18.00;;;14.47;;
13331;SDS011;6735;51.456;12.626;2022-11-20T13:07:21;19.17;;;14.17;;
13331;SDS011;6735;51.456;12.626;2022-11-20T13:09:50;18.03;;;14.43;;
13331;SDS011;6735;51.456;12.626;2022-11-20T13:12:24;19.13;;;14.87;;
13331;SDS011;6735;51.456;12.626;2022-11-20T13:17:38;18.10;;;14.17;;
13331;SDS011;6735;51.456;12.626;2022-11-20T13:20:14;20.67;;;14.67;;
13331;SDS011;6735;51.456;12.626;2022-11-20T13:22:43;18.47;;;14.10;;
13331;SDS011;6735;51.456;12.626;2022-11-20T13:25:29;17.93;;;13.40;;
13331;SDS011;6735;51.456;12.626;2022-11-20T13:30:33;17.83;;;13.33;;
13331;SDS011;6735;51.456;12.626;2022-11-20T13:33:08;18.47;;;14.30;;
13331;SDS011;6735;51.456;12.626;2022-11-20T13:35:57;19.80;;;15.17;;
13331;SDS011;6735;51.456;12.626;2022-11-20T13:38:25;19.33;;;14.87;;
13331;SDS011;6735;51.456;12.626;2022-11-20T13:46:00;18.17;;;14.03;;
13331;SDS011;6735;51.456;12.626;2022-11-20T13:48:32;15.97;;;13.77;;
13331;SDS011;6735;51.456;12.626;2022-11-20T13:51:28;19.97;;;13.40;;
13331;SDS011;6735;51.456;12.626;2022-11-20T13:56:47;18.80;;;13.70;;
13331;SDS011;6735;51.456;12.626;2022-11-20T14:02:21;21.43;;;19.20;;
13331;SDS011;6735;51.456;12.626;2022-11-20T14:04:52;19.37;;;14.50;;
13331;SDS011;6735;51.456;12.626;2022-11-20T14:07:20;18.83;;;14.33;;
13331;SDS011;6735;51.456;12.626;2022-11-20T14:09:55;17.90;;;14.00;;
13331;SDS011;6735;51.456;12.626;2022-11-20T14:12:22;18.53;;;13.47;;
13331;SDS011;6735;51.456;12.626;2022-11-20T14:14:53;17.00;;;13.53;;
13331;SDS011;6735;51.456;12.626;2022-11-20T14:17:20;17.00;;;13.47;;
13331;SDS011;6735;51.456;12.626;2022-11-20T14:19:55;19.27;;;13.80;;
13331;SDS011;6735;51.456;12.626;2022-11-20T14:22:28;19.30;;;14.07;;
13331;SDS011;6735;51.456;12.626;2022-11-20T14:25:27;17.97;;;14.30;;
13331;SDS011;6735;51.456;12.626;2022-11-20T14:27:56;17.37;;;13.37;;
13331;SDS011;6735;51.456;12.626;2022-11-20T14:30:24;17.47;;;14.17;;
13331;SDS011;6735;51.456;12.626;2022-11-20T14:32:53;16.47;;;13.63;;
13331;SDS011;6735;51.456;12.626;2022-11-20T14:35:31;18.30;;;14.30;;
13331;SDS011;6735;51.456;12.626;2022-11-20T14:38:01;20.27;;;14.87;;
13331;SDS011;6735;51.456;12.626;2022-11-20T14:40:32;18.70;;;13.83;;
13331;SDS011;6735;51.456;12.626;2022-11-20T14:43:02;20.43;;;13.60;;
13331;SDS011;6735;51.456;12.626;2022-11-20T14:45:49;17.90;;;13.47;;
13331;SDS011;6735;51.456;12.626;2022-11-20T14:48:46;18.50;;;14.17;;
13331;SDS011;6735;51.456;12.626;2022-11-20T14:51:29;19.83;;;13.83;;
13331;SDS011;6735;51.456;12.626;2022-11-20T14:54:14;19.07;;;15.13;;
13331;SDS011;6735;51.456;12.626;2022-11-20T14:57:00;23.87;;;17.60;;
13331;SDS011;6735;51.456;12.626;2022-11-20T14:59:30;32.30;;;23.03;;
13331;SDS011;6735;51.456;12.626;2022-11-20T15:01:59;33.00;;;23.53;;
13331;SDS011;6735;51.456;12.626;2022-11-20T15:04:30;29.83;;;22.33;;
13331;SDS011;6735;51.456;12.626;2022-11-20T15:06:56;23.90;;;18.07;;
13331;SDS011;6735;51.456;12.626;2022-11-20T15:09:23;22.27;;;17.47;;
13331;SDS011;6735;51.456;12.626;2022-11-20T15:11:59;21.07;;;16.90;;
13331;SDS011;6735;51.456;12.626;2022-11-20T15:14:27;19.97;;;15.43;;
13331;SDS011;6735;51.456;12.626;2022-11-20T15:16:54;19.80;;;15.30;;
13331;SDS011;6735;51.456;12.626;2022-11-20T15:19:20;22.60;;;16.07;;
13331;SDS011;6735;51.456;12.626;2022-11-20T15:21:47;20.37;;;15.77;;
13331;SDS011;6735;51.456;12.626;2022-11-20T15:24:14;21.77;;;16.73;;
13331;SDS011;6735;51.456;12.626;2022-11-20T15:26:39;23.80;;;16.83;;
13331;SDS011;6735;51.456;12.626;2022-11-20T15:29:13;24.30;;;18.07;;
13331;SDS011;6735;51.456;12.626;2022-11-20T15:31:43;22.70;;;17.20;;
13331;SDS011;6735;51.456;12.626;2022-11-20T15:34:13;22.23;;;16.83;;
13331;SDS011;6735;51.456;12.626;2022-11-20T15:36:40;21.90;;;17.13;;
13331;SDS011;6735;51.456;12.626;2022-11-20T15:39:07;25.03;;;18.87;;
13331;SDS011;6735;51.456;12.626;2022-11-20T15:41:34;28.97;;;20.30;;
13331;SDS011;6735;51.456;12.626;2022-11-20T15:44:00;29.97;;;20.50;;
13331;SDS011;6735;51.456;12.626;2022-11-20T15:46:27;29.07;;;20.70;;
13331;SDS011;6735;51.456;12.626;2022-11-20T15:48:55;31.93;;;22.83;;
13331;SDS011;6735;51.456;12.626;2022-11-20T15:51:35;33.50;;;24.10;;
13331;SDS011;6735;51.456;12.626;2022-11-20T15:54:12;29.37;;;22.83;;
13331;SDS011;6735;51.456;12.626;2022-11-20T15:56:39;28.63;;;22.60;;
13331;SDS011;6735;51.456;12.626;2022-11-20T15:59:05;27.33;;;20.80;;
13331;SDS011;6735;51.456;12.626;2022-11-20T16:01:30;28.90;;;21.60;;
13331;SDS011;6735;51.456;12.626;2022-11-20T16:03:56;27.77;;;21.07;;
13331;SDS011;6735;51.456;12.626;2022-11-20T16:06:22;26.87;;;19.37;;
13331;SDS011;6735;51.456;12.626;2022-11-20T16:08:47;27.67;;;21.00;;
13331;SDS011;6735;51.456;12.626;2022-11-20T16:11:13;26.63;;;20.33;;
13331;SDS011;6735;51.456;12.626;2022-11-20T16:13:41;24.13;;;18.10;;
13331;SDS011;6735;51.456;12.626;2022-11-20T16:16:27;23.83;;;16.27;;
13331;SDS011;6735;51.456;12.626;2022-11-20T16:18:56;21.57;;;16.87;;